Cavalier, ND

12:54 PM CST on March 03, 2015 (GMT -0600)
Walhalla | Change Station
CLOSE
Current Station
Airport
Location: Walhalla,
Elevation: 951 ft
Nearby Weather Stations
Active Advisory: Wind Advisory

Elev 951 ft 48.94 °N, 97.90 °W | Updated 19 minutes ago

Mostly Cloudy
Mostly Cloudy
5 °F
Feels Like -15 °F
N
20
Wind Variable Wind from NW
Gusts 29 mph

Today
High -- | Low -- °F
--% Chance of Precip.
Yesterday
High -- | Low -- °F
Precip. -- in
7:08 AM 6:17 PM
Waxing Gibbous, 97% visible
Pressure 29.90 in
Visibility 10.0 miles
Clouds
Windchill -15 °F
Dew Point -6 °F
Humidity 61%
Rainfall 0.57 in
Snow Depth Not available.
UV Not available.
Pollen .10 out of 12
Air Quality Not available.
Flu Activity Not available.
METAR K96D 031835Z AUTO 31017G25KT 10SM M15/M21 A2990 RMK AO2

More Conditions Fewer Conditions

Pressure 29.90 in
Visibility 10.0 miles
Clouds
Windchill -15 °F
Dew Point -6 °F
Humidity 61%
Rainfall 0.57 in
Snow Depth Not available.
UV Not available.
Pollen .10 out of 12
Air Quality Not available.
Flu Activity Not available.
METAR K96D 031835Z AUTO 31017G25KT 10SM M15/M21 A2990 RMK AO2

More Conditions Fewer Conditions

10-Day Weather Forecast

Almanac

Astronomy

Mar. 03, 2015 Rise Set
Actual Time
Civil Twilight
Nautical Twilight
Astronomical Twilight
Moon
Length of Visible Light
Length of Day
Tomorrow will be .
, % of the Moon is Illuminated

Today's Extremes

State Highs State Lows

Community

WunderPhotos

Upload Photos

1,802,198 photos uploaded!

WunderBlogs® & News

Nearby

Air Quality

  Air Quality AQ Index Pollutant
Not available.

Snow Depth

Station Depth Elevation

Earthquake Activity

City Distance Mag. Time & Date
Minimum magnitude displayed is 2.5.

Coastal Water Temperatures

Place Temperature

Nearby Weather Stations

Wind Advisory
Statement as of 12:20 PM CST on March 03, 2015

... Wind Advisory in effect until 6 PM CST this evening...

The National Weather Service in Grand Forks has issued a Wind
Advisory... which is in effect until 6 PM CST this evening.

* Timing... through today.

* Winds... northwest winds 30 to 35 mph with gusts to near 45 mph
possible.

* Impacts... there could be some localized blowing snow in open
country. Hazardous wind chills will develop this evening.

Precautionary/preparedness actions...

A Wind Advisory means that sustained winds of 30 mph or frequent
gusts to 45 mph are expected. Winds this strong can make driving
difficult... especially for high profile vehicles. Use extra
caution.